createdAt,value
2022-08-31T00:01:08.131Z,22.60
2022-08-31T00:03:50.776Z,22.50
2022-08-31T00:06:22.519Z,22.40
2022-08-31T00:08:55.715Z,22.50
2022-08-31T00:11:31.685Z,22.50
2022-08-31T00:14:04.443Z,22.50
2022-08-31T00:16:37.493Z,22.50
2022-08-31T00:19:08.834Z,22.50
2022-08-31T00:21:39.451Z,22.40
2022-08-31T00:24:12.433Z,22.50
2022-08-31T00:26:43.291Z,22.40
2022-08-31T00:29:14.519Z,22.40
2022-08-31T00:31:47.753Z,22.30
2022-08-31T00:34:18.081Z,22.30
2022-08-31T00:36:48.817Z,22.20
2022-08-31T00:39:21.925Z,22.20
2022-08-31T00:41:52.752Z,22.20
2022-08-31T00:44:24.955Z,22.20
2022-08-31T00:46:55.601Z,22.20
2022-08-31T00:49:29.637Z,22.20
2022-08-31T00:52:03.813Z,22.20
2022-08-31T00:54:39.521Z,22.20
2022-08-31T00:57:11.820Z,22.10
2022-08-31T00:59:44.149Z,22.10
2022-08-31T01:02:14.754Z,22.00
2022-08-31T01:04:45.172Z,22.10
2022-08-31T01:07:16.848Z,22.00
2022-08-31T01:09:55.441Z,22.00
2022-08-31T01:12:28.892Z,22.10
2022-08-31T01:15:00.093Z,21.90
2022-08-31T01:17:30.695Z,22.00
2022-08-31T01:20:05.168Z,22.00
2022-08-31T01:22:41.906Z,22.00
2022-08-31T01:25:16.159Z,21.90
2022-08-31T01:27:47.014Z,21.90
2022-08-31T01:30:24.852Z,21.80
2022-08-31T01:32:55.494Z,21.80
2022-08-31T01:35:25.844Z,21.80
2022-08-31T01:37:57.998Z,21.70
2022-08-31T01:40:36.395Z,21.70
2022-08-31T01:43:07.202Z,21.80
2022-08-31T01:45:38.757Z,21.80
2022-08-31T01:48:09.293Z,21.80
2022-08-31T01:50:39.597Z,21.80
2022-08-31T01:53:10.307Z,21.80
2022-08-31T01:55:43.543Z,21.80
2022-08-31T01:58:13.910Z,21.80
2022-08-31T02:01:28.125Z,21.80
2022-08-31T02:04:06.333Z,21.80
2022-08-31T02:06:37.916Z,21.80
2022-08-31T02:09:09.608Z,21.80
2022-08-31T02:11:43.238Z,21.70
2022-08-31T02:14:14.111Z,21.70
2022-08-31T02:16:44.510Z,21.70
2022-08-31T02:19:15.323Z,21.70
2022-08-31T02:21:45.654Z,21.70
2022-08-31T02:24:16.287Z,21.60
2022-08-31T02:26:53.161Z,21.60
2022-08-31T02:29:25.178Z,21.60
2022-08-31T02:31:55.617Z,21.70
2022-08-31T02:34:29.622Z,21.70
2022-08-31T02:37:00.650Z,21.70
2022-08-31T02:39:31.925Z,21.60
2022-08-31T02:42:04.967Z,21.60
2022-08-31T02:44:35.574Z,21.50
2022-08-31T02:47:06.386Z,21.50
2022-08-31T02:50:04.906Z,21.50
2022-08-31T02:52:35.404Z,21.50
2022-08-31T02:55:05.985Z,21.60
2022-08-31T02:57:38.960Z,21.50
2022-08-31T03:00:11.966Z,21.50
2022-08-31T03:02:42.353Z,21.50
2022-08-31T03:05:14.187Z,21.60
2022-08-31T03:07:45.570Z,21.50
2022-08-31T03:10:16.899Z,21.50
2022-08-31T03:12:50.063Z,21.40
2022-08-31T03:15:22.506Z,21.40
2022-08-31T03:17:53.242Z,21.40
2022-08-31T03:20:28.337Z,21.40
2022-08-31T03:22:59.393Z,21.40
2022-08-31T03:25:30.851Z,21.40
2022-08-31T03:28:04.047Z,21.40
2022-08-31T03:30:38.068Z,21.40
2022-08-31T03:33:17.312Z,21.40
2022-08-31T03:35:47.974Z,21.40
2022-08-31T03:38:20.345Z,21.30
2022-08-31T03:40:51.177Z,21.30
2022-08-31T03:43:24.427Z,21.40
2022-08-31T03:45:55.105Z,21.30
2022-08-31T03:48:25.986Z,21.30
2022-08-31T03:50:56.609Z,21.20
2022-08-31T03:53:32.265Z,21.20
2022-08-31T03:56:09.662Z,21.30
2022-08-31T03:58:47.306Z,21.20
2022-08-31T04:01:39.479Z,21.20
2022-08-31T04:04:30.054Z,21.10
2022-08-31T04:07:42.205Z,21.20
2022-08-31T04:10:33.395Z,21.20
2022-08-31T04:13:28.030Z,21.20
2022-08-31T04:16:23.649Z,21.20
2022-08-31T04:19:31.315Z,21.20
2022-08-31T04:22:17.698Z,21.20
2022-08-31T04:25:10.564Z,21.10
2022-08-31T04:27:41.229Z,21.10
2022-08-31T04:30:13.331Z,21.10
2022-08-31T04:32:46.642Z,21.10
2022-08-31T04:35:17.338Z,21.00
2022-08-31T04:37:48.275Z,21.10
2022-08-31T04:40:25.552Z,21.10
2022-08-31T04:42:57.013Z,21.10
2022-08-31T04:45:28.405Z,21.10
2022-08-31T04:48:01.477Z,21.10
2022-08-31T04:50:32.763Z,21.10
2022-08-31T04:53:12.208Z,21.10
2022-08-31T04:55:44.077Z,21.10
2022-08-31T04:58:17.801Z,21.10
2022-08-31T05:00:48.158Z,21.00
2022-08-31T05:03:53.093Z,20.90
2022-08-31T05:06:25.189Z,20.90
2022-08-31T05:08:58.849Z,20.80
2022-08-31T05:11:30.632Z,20.90
2022-08-31T05:14:03.472Z,20.90
2022-08-31T05:16:37.631Z,20.80
2022-08-31T05:19:11.176Z,20.90
2022-08-31T05:21:43.080Z,20.80
2022-08-31T05:24:16.235Z,20.80
2022-08-31T05:26:51.171Z,20.80
2022-08-31T05:29:24.450Z,20.70
2022-08-31T05:32:04.296Z,20.70
2022-08-31T05:34:40.752Z,20.70
2022-08-31T05:37:11.386Z,20.60
2022-08-31T05:39:41.944Z,20.60
2022-08-31T05:42:15.504Z,20.70
2022-08-31T05:44:46.655Z,20.70
2022-08-31T05:47:17.648Z,20.70
2022-08-31T05:49:50.825Z,20.70
2022-08-31T05:52:25.093Z,20.60
2022-08-31T05:54:57.767Z,20.60
2022-08-31T05:57:28.261Z,20.70
2022-08-31T06:00:00.286Z,20.70
2022-08-31T06:02:31.714Z,20.80
2022-08-31T06:05:04.761Z,20.70
2022-08-31T06:07:35.510Z,20.70
2022-08-31T06:10:09.944Z,20.80
2022-08-31T06:12:44.343Z,20.70
2022-08-31T06:15:18.738Z,20.60
2022-08-31T06:17:49.246Z,20.60
2022-08-31T06:20:22.440Z,20.70
2022-08-31T06:22:52.897Z,20.80
2022-08-31T06:25:33.080Z,20.80
2022-08-31T06:28:05.834Z,20.80
2022-08-31T06:30:54.489Z,20.70
2022-08-31T06:33:26.487Z,20.70
2022-08-31T06:36:25.589Z,20.80
2022-08-31T06:39:17.103Z,20.80
2022-08-31T06:42:20.564Z,20.80
2022-08-31T06:45:04.173Z,20.60
2022-08-31T06:48:01.268Z,20.70
2022-08-31T06:50:33.149Z,20.60
2022-08-31T06:53:07.113Z,20.70
2022-08-31T06:55:56.892Z,20.70
2022-08-31T06:59:08.532Z,20.60
2022-08-31T07:01:59.300Z,20.70
2022-08-31T07:04:38.921Z,20.70
2022-08-31T07:07:12.104Z,20.80
2022-08-31T07:09:52.095Z,20.80
2022-08-31T07:12:23.085Z,20.80
2022-08-31T07:14:57.002Z,20.80
2022-08-31T07:17:29.045Z,20.80
2022-08-31T07:20:00.118Z,20.70
2022-08-31T07:22:30.862Z,20.80
2022-08-31T07:25:23.666Z,20.80
2022-08-31T07:27:55.661Z,20.70
2022-08-31T07:30:33.279Z,20.70
2022-08-31T07:33:07.595Z,20.80
2022-08-31T07:35:43.271Z,20.80
2022-08-31T07:38:34.469Z,20.80
2022-08-31T07:41:28.017Z,20.60
2022-08-31T07:44:00.236Z,20.60
2022-08-31T07:46:33.034Z,20.70
2022-08-31T07:49:09.396Z,20.70
2022-08-31T07:51:56.332Z,20.80
2022-08-31T07:54:50.319Z,20.90
2022-08-31T07:57:37.504Z,20.90
2022-08-31T08:00:11.888Z,20.90
2022-08-31T08:02:52.699Z,21.00
2022-08-31T08:05:37.821Z,21.00
2022-08-31T08:08:27.287Z,21.00
2022-08-31T08:11:25.794Z,21.20
2022-08-31T08:14:21.003Z,21.20
2022-08-31T08:17:10.633Z,21.30
2022-08-31T08:19:52.486Z,21.30
2022-08-31T08:22:50.962Z,21.30
2022-08-31T08:25:43.775Z,21.30
2022-08-31T08:28:40.075Z,21.40
2022-08-31T08:31:23.361Z,21.30
2022-08-31T08:33:55.651Z,21.40
2022-08-31T08:36:27.756Z,21.50
2022-08-31T08:38:59.755Z,21.50
2022-08-31T08:41:37.290Z,21.50
2022-08-31T08:44:17.777Z,21.50
2022-08-31T08:46:57.716Z,21.50
2022-08-31T08:49:44.419Z,21.50
2022-08-31T08:52:22.931Z,21.50
2022-08-31T08:54:56.672Z,21.70
2022-08-31T08:57:31.613Z,21.60
2022-08-31T09:00:11.177Z,21.70
2022-08-31T09:02:58.725Z,21.70
2022-08-31T09:06:02.868Z,21.70
2022-08-31T09:08:55.347Z,21.60
2022-08-31T09:11:35.809Z,21.60
2022-08-31T09:14:19.387Z,21.60
2022-08-31T09:17:02.235Z,21.70
2022-08-31T09:19:55.898Z,21.90
2022-08-31T09:22:27.150Z,21.90
2022-08-31T09:24:59.826Z,22.00
2022-08-31T09:28:03.322Z,22.00
2022-08-31T09:30:43.834Z,22.30
2022-08-31T09:33:21.338Z,22.20
2022-08-31T09:35:56.976Z,22.30
2022-08-31T09:38:33.424Z,22.30
2022-08-31T09:41:08.845Z,22.40
2022-08-31T09:43:41.253Z,22.40
2022-08-31T09:46:17.871Z,22.40
2022-08-31T09:48:52.378Z,22.50
2022-08-31T09:51:30.228Z,22.60
2022-08-31T09:54:19.525Z,22.70
2022-08-31T09:56:58.097Z,22.80
2022-08-31T09:59:44.362Z,22.90
2022-08-31T10:02:31.806Z,22.90
2022-08-31T10:05:06.589Z,22.90
2022-08-31T10:07:48.214Z,22.90
2022-08-31T10:10:28.128Z,23.00
2022-08-31T10:13:05.476Z,23.20
2022-08-31T10:15:42.430Z,23.10
2022-08-31T10:18:18.097Z,23.10
2022-08-31T10:20:55.792Z,23.20
2022-08-31T10:23:37.115Z,23.20
2022-08-31T10:26:13.593Z,23.30
2022-08-31T10:28:51.028Z,23.30
2022-08-31T10:31:26.459Z,23.40
2022-08-31T10:34:15.405Z,23.50
2022-08-31T10:36:47.688Z,23.50
2022-08-31T10:39:31.376Z,23.40
2022-08-31T10:42:05.730Z,23.60
2022-08-31T10:44:42.407Z,23.60
2022-08-31T10:47:22.925Z,23.60
2022-08-31T10:50:05.802Z,23.60
2022-08-31T10:52:43.222Z,23.70
2022-08-31T10:55:29.088Z,23.80
2022-08-31T10:58:08.182Z,23.80
2022-08-31T11:00:48.032Z,24.00
2022-08-31T11:03:28.394Z,24.00
2022-08-31T11:06:03.646Z,24.00
2022-08-31T11:08:50.070Z,24.10
2022-08-31T11:11:37.354Z,24.30
2022-08-31T11:14:45.616Z,24.20
2022-08-31T11:17:32.428Z,24.20
2022-08-31T11:20:22.872Z,24.20
2022-08-31T11:23:42.282Z,24.40
2022-08-31T11:26:48.153Z,24.50
2022-08-31T11:29:41.726Z,24.60
2022-08-31T11:32:20.891Z,24.60
2022-08-31T11:34:55.071Z,24.70
2022-08-31T11:37:57.396Z,24.80
2022-08-31T11:41:00.759Z,24.90
2022-08-31T11:43:49.202Z,24.90
2022-08-31T11:46:34.567Z,25.00
2022-08-31T11:49:11.440Z,25.00
2022-08-31T11:51:49.926Z,25.10
2022-08-31T11:54:43.504Z,25.10
2022-08-31T11:57:17.898Z,25.20
2022-08-31T11:59:51.482Z,25.40
2022-08-31T12:02:45.897Z,25.40
2022-08-31T12:05:58.150Z,25.50
2022-08-31T12:08:32.151Z,25.50
2022-08-31T12:11:11.654Z,25.50
2022-08-31T12:13:53.859Z,25.60
2022-08-31T12:16:53.379Z,25.70
2022-08-31T12:20:00.969Z,25.90
2022-08-31T12:23:10.271Z,26.00
2022-08-31T12:25:49.656Z,25.90
2022-08-31T12:28:29.522Z,25.90
2022-08-31T12:31:07.852Z,26.10
2022-08-31T12:33:43.917Z,26.10
2022-08-31T12:36:17.907Z,26.20
2022-08-31T12:39:09.585Z,26.20
2022-08-31T12:41:45.731Z,26.30
2022-08-31T12:44:24.761Z,26.40
2022-08-31T12:47:05.934Z,26.40
2022-08-31T12:49:57.434Z,26.50
2022-08-31T12:52:44.496Z,26.60
2022-08-31T12:55:38.092Z,26.60
2022-08-31T12:58:28.510Z,26.80
2022-08-31T13:01:11.179Z,26.80
2022-08-31T13:03:54.226Z,26.80
2022-08-31T13:06:34.531Z,26.80
2022-08-31T13:09:08.778Z,26.90
2022-08-31T13:11:45.134Z,26.90
2022-08-31T13:14:20.878Z,27.00
2022-08-31T13:16:54.625Z,27.20
2022-08-31T13:19:29.795Z,27.10
2022-08-31T13:22:05.940Z,27.00
2022-08-31T13:24:41.430Z,26.70
2022-08-31T13:27:22.137Z,26.80
2022-08-31T13:29:57.297Z,27.00
2022-08-31T13:32:37.199Z,27.20
2022-08-31T13:35:15.531Z,27.10
2022-08-31T13:37:53.065Z,27.10
2022-08-31T13:40:28.695Z,27.10
2022-08-31T13:43:03.261Z,27.40
2022-08-31T13:45:36.954Z,27.40
2022-08-31T13:48:10.608Z,27.50
2022-08-31T13:50:52.603Z,27.50
2022-08-31T13:53:45.227Z,27.20
2022-08-31T13:56:50.565Z,27.20
2022-08-31T13:59:39.057Z,27.50
2022-08-31T14:02:37.611Z,27.50
2022-08-31T14:05:13.248Z,27.60
2022-08-31T14:08:07.470Z,27.80
2022-08-31T14:10:42.360Z,27.70
2022-08-31T14:13:25.366Z,27.70
2022-08-31T14:16:02.605Z,27.80
2022-08-31T14:18:41.379Z,27.80
2022-08-31T14:21:24.158Z,27.90
2022-08-31T14:24:01.521Z,27.90
2022-08-31T14:26:35.114Z,27.90
2022-08-31T14:29:11.062Z,28.00
2022-08-31T14:31:49.815Z,28.00
2022-08-31T14:34:26.700Z,28.20
2022-08-31T14:37:02.655Z,27.90
2022-08-31T14:39:36.339Z,27.60
2022-08-31T14:42:10.313Z,27.70
2022-08-31T14:44:44.329Z,27.90
2022-08-31T14:47:18.006Z,28.00
2022-08-31T14:49:50.793Z,28.00
2022-08-31T14:52:22.042Z,28.10
2022-08-31T14:55:04.075Z,28.10
2022-08-31T14:57:36.590Z,28.20
2022-08-31T15:00:10.051Z,28.20
2022-08-31T15:02:44.012Z,28.10
2022-08-31T15:05:18.272Z,28.10
2022-08-31T15:07:49.432Z,28.10
2022-08-31T15:10:23.085Z,28.00
2022-08-31T15:12:53.936Z,28.00
2022-08-31T15:15:26.680Z,28.10
2022-08-31T15:18:03.470Z,28.10
2022-08-31T15:20:42.181Z,28.10
2022-08-31T15:23:16.270Z,28.10
2022-08-31T15:25:48.857Z,28.20
2022-08-31T15:28:19.513Z,28.30
2022-08-31T15:30:52.153Z,28.20
2022-08-31T15:33:25.782Z,28.40
2022-08-31T15:36:07.640Z,28.30
2022-08-31T15:38:39.131Z,28.10
2022-08-31T15:41:12.320Z,27.90
2022-08-31T15:43:46.022Z,27.80
2022-08-31T15:46:17.173Z,27.80
2022-08-31T15:48:49.472Z,27.90
2022-08-31T15:51:27.858Z,28.00
2022-08-31T15:54:21.146Z,27.90
2022-08-31T15:56:52.704Z,28.20
2022-08-31T15:59:25.857Z,28.20
2022-08-31T16:01:56.340Z,28.20
2022-08-31T16:04:29.826Z,28.10
2022-08-31T16:07:01.036Z,27.90
2022-08-31T16:09:34.710Z,27.80
2022-08-31T16:12:05.584Z,27.80
2022-08-31T16:14:38.586Z,28.00
2022-08-31T16:17:09.616Z,28.00
2022-08-31T16:19:57.813Z,28.20
2022-08-31T16:22:32.885Z,28.20
2022-08-31T16:25:14.292Z,28.30
2022-08-31T16:27:44.794Z,28.40
2022-08-31T16:30:16.914Z,28.40
2022-08-31T16:32:52.147Z,28.40
2022-08-31T16:35:25.577Z,28.30
2022-08-31T16:37:56.106Z,28.20
2022-08-31T16:40:26.521Z,28.20
2022-08-31T16:42:56.838Z,28.10
2022-08-31T16:45:27.174Z,27.90
2022-08-31T16:48:17.574Z,28.10
2022-08-31T16:50:48.868Z,28.20
2022-08-31T16:53:19.974Z,28.30
2022-08-31T16:55:50.335Z,28.30
2022-08-31T16:58:40.680Z,28.40
2022-08-31T17:01:13.420Z,28.30
2022-08-31T17:03:46.917Z,28.40
2022-08-31T17:06:20.568Z,28.40
2022-08-31T17:08:52.220Z,28.30
2022-08-31T17:11:25.432Z,28.30
2022-08-31T17:13:59.811Z,28.30
2022-08-31T17:16:32.483Z,28.50
2022-08-31T17:19:06.631Z,28.40
2022-08-31T17:21:49.861Z,28.30
2022-08-31T17:24:24.349Z,28.10
2022-08-31T17:26:57.499Z,28.10
2022-08-31T17:29:30.944Z,28.10
2022-08-31T17:32:03.671Z,28.10
2022-08-31T17:34:35.766Z,28.10
2022-08-31T17:37:11.530Z,27.90
2022-08-31T17:39:42.235Z,27.80
2022-08-31T17:42:15.305Z,27.80
2022-08-31T17:44:48.269Z,27.80
2022-08-31T17:47:18.814Z,27.80
2022-08-31T17:49:51.122Z,28.00
2022-08-31T17:52:24.491Z,28.20
2022-08-31T17:54:55.457Z,28.00
2022-08-31T17:57:28.137Z,27.80
2022-08-31T17:59:58.661Z,27.70
2022-08-31T18:02:34.956Z,27.70
2022-08-31T18:05:09.555Z,27.70
2022-08-31T18:07:45.035Z,27.70
2022-08-31T18:10:15.593Z,27.60
2022-08-31T18:12:47.677Z,27.50
2022-08-31T18:15:19.156Z,27.50
2022-08-31T18:17:49.647Z,27.40
2022-08-31T18:20:20.235Z,27.40
2022-08-31T18:22:53.415Z,27.30
2022-08-31T18:25:31.601Z,27.30
2022-08-31T18:28:17.449Z,27.20
2022-08-31T18:30:51.819Z,27.20
2022-08-31T18:33:22.733Z,27.10
2022-08-31T18:35:53.115Z,27.10
2022-08-31T18:38:26.319Z,27.10
2022-08-31T18:41:10.801Z,27.00
2022-08-31T18:43:53.604Z,26.90
2022-08-31T18:46:27.450Z,26.80
2022-08-31T18:49:11.480Z,26.80
2022-08-31T18:51:46.439Z,26.80
2022-08-31T18:54:19.786Z,26.70
2022-08-31T18:56:50.830Z,26.70
2022-08-31T18:59:22.199Z,26.60
2022-08-31T19:01:52.626Z,26.50
2022-08-31T19:04:23.197Z,26.50
2022-08-31T19:06:53.718Z,26.50
2022-08-31T19:09:26.843Z,26.50
2022-08-31T19:12:02.302Z,26.40
2022-08-31T19:14:36.043Z,26.50
2022-08-31T19:17:08.551Z,26.30
2022-08-31T19:19:39.114Z,26.40
2022-08-31T19:22:09.775Z,26.30
2022-08-31T19:24:43.112Z,26.20
2022-08-31T19:27:14.209Z,26.20
2022-08-31T19:29:45.210Z,26.20
2022-08-31T19:32:15.565Z,26.10
2022-08-31T19:34:48.230Z,26.10
2022-08-31T19:37:18.923Z,26.00
2022-08-31T19:39:53.094Z,26.00
2022-08-31T19:42:40.185Z,26.00
2022-08-31T19:45:40.699Z,25.90
2022-08-31T19:48:03.085Z,26.00
2022-08-31T19:50:42.521Z,25.90
2022-08-31T19:53:14.074Z,25.90
2022-08-31T19:55:58.365Z,25.80
2022-08-31T19:58:28.676Z,25.80
2022-08-31T20:01:01.321Z,25.70
2022-08-31T20:03:34.341Z,25.80
2022-08-31T20:06:09.082Z,25.70
2022-08-31T20:08:39.635Z,25.60
2022-08-31T20:11:16.074Z,25.70
2022-08-31T20:13:49.819Z,25.60
2022-08-31T20:16:20.987Z,25.60
2022-08-31T20:18:56.731Z,25.50
2022-08-31T20:21:31.239Z,25.50
2022-08-31T20:24:06.093Z,25.50
2022-08-31T20:26:47.336Z,25.50
2022-08-31T20:29:23.329Z,25.40
2022-08-31T20:31:56.341Z,25.50
2022-08-31T20:34:29.415Z,25.40
2022-08-31T20:37:01.387Z,25.40
2022-08-31T20:39:35.495Z,25.40
2022-08-31T20:42:09.153Z,25.40
2022-08-31T20:44:41.100Z,25.30
2022-08-31T20:47:25.694Z,25.20
2022-08-31T20:49:57.878Z,25.30
2022-08-31T20:52:32.300Z,25.30
2022-08-31T20:55:04.060Z,25.20
2022-08-31T20:57:40.233Z,25.20
2022-08-31T21:00:12.409Z,25.10
2022-08-31T21:02:43.462Z,25.20
2022-08-31T21:05:37.080Z,25.10
2022-08-31T21:08:10.344Z,25.10
2022-08-31T21:10:42.106Z,25.10
2022-08-31T21:13:16.350Z,25.00
2022-08-31T21:15:48.230Z,25.00
2022-08-31T21:18:19.860Z,25.00
2022-08-31T21:20:51.743Z,24.90
2022-08-31T21:23:22.343Z,24.90
2022-08-31T21:25:52.632Z,24.90
2022-08-31T21:28:28.291Z,24.80
2022-08-31T21:31:15.582Z,24.90
2022-08-31T21:33:49.814Z,24.80
2022-08-31T21:36:23.431Z,24.70
2022-08-31T21:38:55.164Z,24.70
2022-08-31T21:41:27.062Z,24.60
2022-08-31T21:44:00.842Z,24.70
2022-08-31T21:46:32.927Z,24.60
2022-08-31T21:49:03.989Z,24.60
2022-08-31T21:51:36.214Z,24.60
2022-08-31T21:54:08.878Z,24.60
2022-08-31T21:56:43.773Z,24.50
2022-08-31T21:59:19.586Z,24.50
2022-08-31T22:01:51.249Z,24.50
2022-08-31T22:04:21.955Z,24.40
2022-08-31T22:06:53.921Z,24.40
2022-08-31T22:09:26.518Z,24.30
2022-08-31T22:11:58.804Z,24.30
2022-08-31T22:14:36.009Z,24.10
2022-08-31T22:17:09.458Z,24.20
2022-08-31T22:19:43.141Z,24.20
2022-08-31T22:22:15.260Z,24.10
2022-08-31T22:24:45.720Z,24.10
2022-08-31T22:27:16.159Z,24.10
2022-08-31T22:29:49.914Z,24.10
2022-08-31T22:32:23.077Z,24.10
2022-08-31T22:34:53.442Z,24.00
2022-08-31T22:37:23.807Z,24.00
2022-08-31T22:39:55.447Z,23.90
2022-08-31T22:42:25.727Z,23.90
2022-08-31T22:44:58.825Z,23.80
2022-08-31T22:47:29.183Z,23.80
2022-08-31T22:49:59.567Z,23.80
2022-08-31T22:52:29.937Z,23.80
2022-08-31T22:55:00.543Z,23.80
2022-08-31T22:57:30.957Z,23.80
2022-08-31T23:00:04.429Z,23.70
2022-08-31T23:02:35.190Z,23.70
2022-08-31T23:07:55.241Z,23.60
2022-08-31T23:10:27.208Z,23.60
2022-08-31T23:13:00.768Z,23.50
2022-08-31T23:15:34.426Z,23.50
2022-08-31T23:18:07.984Z,23.50
2022-08-31T23:20:41.343Z,23.40
2022-08-31T23:23:11.983Z,23.40
2022-08-31T23:25:43.136Z,23.40
2022-08-31T23:28:13.478Z,23.40
2022-08-31T23:30:46.890Z,23.30
2022-08-31T23:33:17.359Z,23.30
2022-08-31T23:35:47.837Z,23.20
2022-08-31T23:38:18.253Z,23.20
2022-08-31T23:40:49.326Z,23.10
2022-08-31T23:43:23.211Z,23.10
2022-08-31T23:45:57.897Z,23.00
2022-08-31T23:48:28.253Z,23.00
2022-08-31T23:50:58.609Z,23.00
2022-08-31T23:53:29.059Z,22.90
2022-08-31T23:55:59.315Z,22.80
2022-08-31T23:58:32.037Z,22.80
